Ararat, North Carolina
Current Conditions -  °F | °C
As of 1:55 AM on Friday 19 Dec 2014 (Local Time) from KMWK Reporting Station
Overcast Overcast  
Wind Chill: 42°   Ceiling: 5500
Heat Index: 42°   Visibility: 10mi
Dew Point: 24°   Wind: 3mph
Humidity: 48%   Direction: 290°WNW
Pressure: 30.1"   Gusts: NA
Location:  36.4°N, 80.56°W
Report Text: KMWK 190655Z AUTO 29003KT 10SM OVC055 06/M05 A3010 RMK AO2 T00581046
Loading
Personal Weather Stations






























Interactive Weather Map New forecast layout! Learn more

10-Day Weather Forecast

Advertisements
Track Severe Weather on mobile